Time;durP1;ratioP1;P1;durP2;ratioP2;P2;SDS_P1;SDS_P2;PMS_P1;PMS_P2;Temp;Humidity;BMP_temperature;BMP_pressure;BME280_temperature;BME280_humidity;BME280_pressure;Samples;Min_cycle;Max_cycle;Signal;HPM_P1;HPM_P2
2022/05/15 00:00:44;;;;;;;5.88;2.60;;;;;;;15.65;60.25;99785.31;339559;29;1051;-71
2022/05/15 00:00:57;;;;;;;5.55;2.60;;;;;;;15.65;60.14;99781.84;339942;29;1016;-72
2022/05/15 00:01:09;;;;;;;4.60;2.42;;;;;;;15.63;60.18;99786.34;339955;29;1053;-71
2022/05/15 00:01:22;;;;;;;3.58;2.30;;;;;;;15.66;60.18;99786.19;339926;29;1076;-71
2022/05/15 00:01:34;;;;;;;4.05;2.53;;;;;;;15.65;60.15;99780.06;340086;29;834;-72
2022/05/15 00:01:46;;;;;;;4.25;2.80;;;;;;;15.65;60.17;99780.06;340001;29;1165;-71
2022/05/15 00:01:58;;;;;;;3.67;2.70;;;;;;;15.66;60.10;99786.19;339938;29;1064;-72
2022/05/15 00:02:10;;;;;;;4.82;2.45;;;;;;;15.63;59.84;99783.72;340178;29;1049;-72
2022/05/15 00:02:22;;;;;;;5.20;2.63;;;;;;;15.62;60.83;99785.50;340008;29;1221;-72
2022/05/15 00:02:35;;;;;;;5.03;2.80;;;;;;;15.63;60.28;99781.09;340076;29;1015;-72
2022/05/15 00:02:48;;;;;;;3.67;2.72;;;;;;;15.64;60.02;99788.03;340019;29;1044;-71
2022/05/15 00:03:00;;;;;;;4.95;2.80;;;;;;;15.65;60.07;99779.25;340105;29;1193;-71
2022/05/15 00:03:16;;;;;;;4.72;2.65;;;;;;;15.66;59.85;99781.78;340039;29;851;-72
2022/05/15 00:03:28;;;;;;;3.53;2.65;;;;;;;15.69;59.78;99780.78;338472;29;1947;-73
2022/05/15 00:03:40;;;;;;;5.10;2.80;;;;;;;15.65;60.16;99782.69;338625;29;1064;-72
2022/05/15 00:03:52;;;;;;;5.78;2.70;;;;;;;15.66;59.80;99786.19;338506;29;1185;-71
2022/05/15 00:04:04;;;;;;;5.18;2.70;;;;;;;15.67;59.65;99782.63;338529;29;1173;-72
2022/05/15 00:04:16;;;;;;;6.53;2.75;;;;;;;15.66;59.54;99776.56;338561;29;1213;-72
2022/05/15 00:04:29;;;;;;;6.50;2.65;;;;;;;15.66;59.94;99783.56;338507;29;1104;-72
2022/05/15 00:04:41;;;;;;;5.20;2.70;;;;;;;15.67;60.48;99782.63;338394;29;1253;-72
2022/05/15 00:04:53;;;;;;;5.63;2.67;;;;;;;15.67;60.46;99782.63;338251;29;1052;-71
2022/05/15 00:05:06;;;;;;;4.97;2.70;;;;;;;15.66;60.16;99786.19;338342;29;997;-71
2022/05/15 00:05:18;;;;;;;5.15;2.83;;;;;;;15.65;60.09;99787.09;339631;29;1069;-72
2022/05/15 00:05:30;;;;;;;5.63;2.67;;;;;;;15.66;60.33;99775.72;339926;29;1182;-72
2022/05/15 00:05:43;;;;;;;5.03;2.30;;;;;;;15.65;60.11;99780.06;339812;29;1207;-72
2022/05/15 00:05:58;;;;;;;4.40;2.30;;;;;;;15.65;59.76;99779.25;339982;29;992;-72
2022/05/15 00:06:10;;;;;;;4.32;2.58;;;;;;;15.65;59.79;99782.69;339976;29;1059;-71
2022/05/15 00:06:23;;;;;;;5.03;2.70;;;;;;;15.65;59.86;99781.84;340038;29;1211;-72
2022/05/15 00:06:35;;;;;;;5.72;2.83;;;;;;;15.65;59.98;99780.06;339942;29;1091;-72
2022/05/15 00:06:47;;;;;;;5.78;2.75;;;;;;;15.67;60.01;99780.00;340078;29;1060;-72
2022/05/15 00:06:59;;;;;;;5.35;2.63;;;;;;;15.64;59.90;99780.19;339735;29;1075;-72
2022/05/15 00:07:11;;;;;;;4.82;2.45;;;;;;;15.62;59.97;99774.19;340125;29;1165;-71
2022/05/15 00:07:23;;;;;;;3.95;2.45;;;;;;;15.62;60.01;99782.88;339902;29;1159;-71
2022/05/15 00:07:36;;;;;;;3.95;2.30;;;;;;;15.63;59.95;99781.09;339996;29;1111;-72
2022/05/15 00:07:48;;;;;;;4.10;2.33;;;;;;;15.63;59.92;99781.09;340168;29;1027;-72
2022/05/15 00:08:01;;;;;;;4.30;2.38;;;;;;;15.63;59.91;99784.56;340168;29;1138;-71
2022/05/15 00:08:13;;;;;;;5.82;2.60;;;;;;;15.63;59.85;99781.09;339957;29;1095;-72
2022/05/15 00:08:27;;;;;;;5.68;2.60;;;;;;;15.63;59.83;99776.69;340156;29;1186;-72
2022/05/15 00:08:40;;;;;;;4.25;2.42;;;;;;;15.64;59.76;99777.56;339967;29;1259;-71
2022/05/15 00:08:52;;;;;;;5.63;2.70;;;;;;;15.63;59.67;99776.69;339736;29;1067;-72
2022/05/15 00:09:04;;;;;;;6.60;2.90;;;;;;;15.63;59.61;99781.94;339594;29;1194;-72
2022/05/15 00:09:16;;;;;;;6.75;2.78;;;;;;;15.64;59.56;99788.03;340100;29;735;-72
2022/05/15 00:09:28;;;;;;;4.75;2.58;;;;;;;15.66;59.49;99780.94;339649;29;1238;-72
2022/05/15 00:09:41;;;;;;;5.57;2.63;;;;;;;15.66;59.55;99780.94;339896;29;976;-72
2022/05/15 00:09:53;;;;;;;5.45;2.80;;;;;;;15.66;59.41;99780.94;339792;29;1153;-71
2022/05/15 00:10:06;;;;;;;5.20;2.70;;;;;;;15.65;59.40;99776.63;339742;29;1110;-72
2022/05/15 00:10:18;;;;;;;4.65;2.42;;;;;;;15.65;59.22;99784.47;339611;29;1767;-71
2022/05/15 00:10:30;;;;;;;5.63;2.20;;;;;;;15.62;60.16;99780.25;340086;29;728;-72
2022/05/15 00:10:44;;;;;;;5.80;2.35;;;;;;;15.63;59.79;99781.94;339684;29;1320;-72
2022/05/15 00:10:56;;;;;;;3.90;2.40;;;;;;;15.63;59.78;99781.94;339356;29;1082;-71
2022/05/15 00:11:11;;;;;;;3.33;2.28;;;;;;;15.63;59.75;99781.09;339686;29;1071;-72
2022/05/15 00:11:23;;;;;;;4.28;2.42;;;;;;;15.62;59.94;99774.19;339547;29;1041;-71
2022/05/15 00:11:35;;;;;;;4.45;2.42;;;;;;;15.64;60.10;99777.56;339963;29;1301;-72
2022/05/15 00:11:47;;;;;;;3.65;2.45;;;;;;;15.63;60.28;99783.72;339841;29;1069;-72
2022/05/15 00:12:03;;;;;;;4.88;2.67;;;;;;;15.62;60.01;99774.19;339791;29;1064;-71
2022/05/15 00:12:20;;;;;;;5.88;2.70;;;;;;;15.62;59.85;99776.78;339933;29;1049;-71
2022/05/15 00:12:32;;;;;;;5.80;2.60;;;;;;;15.57;60.55;99777.88;340002;29;914;-72
2022/05/15 00:12:44;;;;;;;5.93;2.58;;;;;;;15.61;60.20;99782.94;339890;29;1250;-72
2022/05/15 00:12:56;;;;;;;4.72;2.58;;;;;;;15.61;59.92;99778.53;339779;29;1206;-72
2022/05/15 00:13:12;;;;;;;5.55;2.70;;;;;;;15.63;59.85;99778.47;339572;29;1093;-71
2022/05/15 00:13:26;;;;;;;4.85;2.50;;;;;;;15.63;59.72;99781.09;339852;29;1076;-71
2022/05/15 00:13:39;;;;;;;4.20;2.30;;;;;;;15.64;59.79;99782.81;339488;29;1055;-72
2022/05/15 00:13:51;;;;;;;5.57;2.50;;;;;;;15.64;59.59;99774.94;340118;29;766;-71
2022/05/15 00:14:04;;;;;;;5.53;2.60;;;;;;;15.62;59.30;99780.25;339725;29;1080;-71
2022/05/15 00:14:16;;;;;;;3.85;2.53;;;;;;;15.62;59.21;99779.41;339868;29;1024;-72
2022/05/15 00:14:29;;;;;;;4.22;2.53;;;;;;;15.62;59.79;99780.25;339719;29;1104;-72
2022/05/15 00:14:42;;;;;;;5.50;2.58;;;;;;;15.62;59.80;99779.41;339944;29;1016;-71
2022/05/15 00:14:54;;;;;;;4.60;2.55;;;;;;;15.61;59.82;99777.72;339563;29;1065;-71
2022/05/15 00:15:06;;;;;;;3.47;2.50;;;;;;;15.60;59.80;99776.88;339761;29;1061;-71
2022/05/15 00:15:18;;;;;;;3.60;2.50;;;;;;;15.58;59.57;99774.31;339568;29;1088;-71
2022/05/15 00:15:31;;;;;;;4.53;2.47;;;;;;;15.60;59.75;99776.03;339791;29;1076;-71
2022/05/15 00:15:44;;;;;;;5.60;2.40;;;;;;;15.58;59.32;99774.31;339528;29;1407;-72
2022/05/15 00:15:56;;;;;;;4.97;2.42;;;;;;;15.56;59.42;99776.16;339654;29;1105;-72
2022/05/15 00:16:08;;;;;;;4.00;2.40;;;;;;;15.55;60.25;99774.50;339648;29;1382;-71
2022/05/15 00:16:20;;;;;;;4.53;2.45;;;;;;;15.56;60.34;99772.72;339676;29;1104;-72
2022/05/15 00:16:33;;;;;;;4.85;2.42;;;;;;;15.58;60.04;99773.47;339789;29;1081;-72
2022/05/15 00:16:45;;;;;;;4.13;2.30;;;;;;;15.56;60.26;99775.34;338683;29;759;-71
2022/05/15 00:16:57;;;;;;;4.03;2.42;;;;;;;15.55;60.63;99771.88;338534;29;1179;-72
2022/05/15 00:17:10;;;;;;;4.07;2.55;;;;;;;15.53;60.65;99771.09;338534;29;1313;-72
2022/05/15 00:17:22;;;;;;;5.72;2.60;;;;;;;15.53;60.55;99773.72;338464;29;1072;-71
2022/05/15 00:17:34;;;;;;;6.22;2.63;;;;;;;15.52;60.57;99769.41;339142;29;1582;-72
2022/05/15 00:17:47;;;;;;;5.05;2.58;;;;;;;15.52;60.27;99766.78;339846;29;1186;-71
2022/05/15 00:17:59;;;;;;;6.05;2.70;;;;;;;15.52;60.23;99772.00;339844;29;1072;-72
2022/05/15 00:18:12;;;;;;;5.72;2.55;;;;;;;15.53;60.39;99775.47;339921;29;1077;-71
2022/05/15 00:18:24;;;;;;;4.13;2.45;;;;;;;15.54;60.29;99767.53;339816;29;1237;-72
2022/05/15 00:18:38;;;;;;;4.55;2.50;;;;;;;15.55;59.85;99769.25;339850;29;1196;-71
2022/05/15 00:18:50;;;;;;;3.38;2.30;;;;;;;15.56;59.74;99770.94;339786;29;1299;-71
2022/05/15 00:19:03;;;;;;;3.70;2.47;;;;;;;15.56;60.00;99765.69;339917;29;1315;-72
2022/05/15 00:19:15;;;;;;;4.13;2.50;;;;;;;15.55;59.64;99769.25;339875;29;1442;-72
2022/05/15 00:19:27;;;;;;;4.80;2.60;;;;;;;15.54;59.88;99772.78;339963;29;1135;-72
2022/05/15 00:19:40;;;;;;;3.88;2.47;;;;;;;15.53;60.28;99773.72;339805;29;1175;-71
2022/05/15 00:19:53;;;;;;;4.30;2.50;;;;;;;15.50;59.85;99771.25;339647;29;1262;-72
2022/05/15 00:20:06;;;;;;;5.63;2.70;;;;;;;15.51;59.92;99772.09;339738;29;1161;-71
2022/05/15 00:20:18;;;;;;;5.80;2.75;;;;;;;15.50;60.28;99766.00;339973;29;1902;-71
2022/05/15 00:20:31;;;;;;;6.15;2.60;;;;;;;15.49;60.25;99773.94;340020;29;1059;-71
2022/05/15 00:20:43;;;;;;;4.70;2.55;;;;;;;15.48;60.17;99773.09;339916;29;1096;-71
2022/05/15 00:20:55;;;;;;;4.35;2.58;;;;;;;15.48;60.42;99769.63;339745;29;1038;-72
2022/05/15 00:21:11;;;;;;;3.95;2.63;;;;;;;15.47;60.13;99766.16;339815;29;1211;-72
2022/05/15 00:21:25;;;;;;;3.03;2.38;;;;;;;15.48;60.40;99767.84;339850;29;1239;-72
2022/05/15 00:21:37;;;;;;;3.78;2.45;;;;;;;15.49;60.68;99771.31;339469;29;1048;-72
2022/05/15 00:21:52;;;;;;;4.07;2.50;;;;;;;15.47;60.97;99766.16;339865;29;1191;-72
2022/05/15 00:22:07;;;;;;;4.20;2.50;;;;;;;15.48;60.20;99767.84;339878;29;894;-71
2022/05/15 00:22:18;;;;;;;6.68;2.75;;;;;;;15.47;60.24;99768.75;339833;29;1095;-72
2022/05/15 00:22:35;;;;;;;6.40;2.80;;;;;;;15.46;59.88;99767.09;339898;29;1096;-71
2022/05/15 00:22:47;;;;;;;3.75;2.40;;;;;;;15.48;59.60;99772.25;339729;29;1056;-72
2022/05/15 00:22:59;;;;;;;4.53;2.45;;;;;;;15.48;59.31;99761.78;339818;29;1039;-71
2022/05/15 00:23:12;;;;;;;5.95;2.65;;;;;;;15.47;58.77;99766.16;339821;29;1043;-71
2022/05/15 00:23:25;;;;;;;7.53;2.70;;;;;;;15.49;58.76;99769.56;339668;29;1231;-72
2022/05/15 00:23:40;;;;;;;6.85;2.53;;;;;;;15.49;58.67;99763.47;339948;29;1038;-73
2022/05/15 00:23:53;;;;;;;4.82;2.20;;;;;;;15.51;59.29;99762.47;339693;29;1167;-72
2022/05/15 00:24:06;;;;;;;4.97;2.20;;;;;;;15.51;58.85;99762.47;339778;29;1035;-72
2022/05/15 00:24:19;;;;;;;5.22;2.28;;;;;;;15.53;58.98;99765.00;339754;29;1197;-72
2022/05/15 00:24:31;;;;;;;4.25;2.25;;;;;;;15.53;58.87;99765.88;339814;29;1025;-72
2022/05/15 00:24:43;;;;;;;3.67;2.42;;;;;;;15.54;59.10;99770.16;339569;29;1126;-72
2022/05/15 00:24:55;;;;;;;3.63;2.55;;;;;;;15.55;59.18;99771.00;338367;29;1237;-72
2022/05/15 00:25:07;;;;;;;3.83;2.38;;;;;;;15.56;59.10;99775.34;338353;29;1147;-72
2022/05/15 00:25:20;;;;;;;4.20;2.40;;;;;;;15.54;59.28;99770.16;338412;29;1262;-72
2022/05/15 00:25:32;;;;;;;4.57;2.58;;;;;;;15.54;59.88;99766.69;338281;29;1167;-73
2022/05/15 00:25:44;;;;;;;4.80;2.70;;;;;;;15.53;60.00;99763.25;338090;29;1387;-72
2022/05/15 00:25:57;;;;;;;5.22;2.70;;;;;;;15.55;59.67;99771.00;338326;29;1290;-72
2022/05/15 00:26:10;;;;;;;5.85;2.70;;;;;;;15.56;59.74;99770.09;338318;29;1049;-72
2022/05/15 00:26:22;;;;;;;4.78;2.53;;;;;;;15.55;59.59;99766.63;338362;29;1224;-72
2022/05/15 00:26:34;;;;;;;4.13;2.42;;;;;;;15.58;59.23;99773.47;339068;29;1175;-72
2022/05/15 00:26:46;;;;;;;4.15;2.50;;;;;;;15.58;59.45;99771.69;339698;29;1100;-72
2022/05/15 00:26:58;;;;;;;4.60;2.60;;;;;;;15.59;59.50;99767.28;339720;29;1108;-72
2022/05/15 00:27:11;;;;;;;5.03;2.90;;;;;;;15.59;59.41;99769.91;339963;29;1179;-72
2022/05/15 00:27:23;;;;;;;5.25;2.92;;;;;;;15.60;59.54;99770.78;339801;29;1048;-73
2022/05/15 00:27:35;;;;;;;4.50;2.67;;;;;;;15.61;59.40;99767.22;339842;29;1136;-72
2022/05/15 00:27:49;;;;;;;4.05;2.55;;;;;;;15.61;59.44;99772.47;339677;29;1020;-72
2022/05/15 00:28:02;;;;;;;4.97;2.63;;;;;;;15.60;59.63;99770.78;339828;29;1276;-72
2022/05/15 00:28:15;;;;;;;5.57;2.55;;;;;;;15.56;59.93;99773.56;339890;29;1311;-72
2022/05/15 00:28:27;;;;;;;5.13;2.50;;;;;;;15.58;59.69;99773.47;340044;29;1028;-72
2022/05/15 00:28:40;;;;;;;5.90;2.50;;;;;;;15.60;59.97;99773.41;340036;29;1530;-72
2022/05/15 00:28:52;;;;;;;6.25;2.50;;;;;;;15.59;59.67;99772.53;339953;29;1107;-72
2022/05/15 00:29:04;;;;;;;5.50;2.45;;;;;;;15.60;59.53;99771.63;340145;29;1063;-72
2022/05/15 00:29:16;;;;;;;4.40;2.47;;;;;;;15.58;59.23;99774.31;339665;29;1154;-72
2022/05/15 00:29:29;;;;;;;5.93;2.42;;;;;;;15.58;59.21;99768.25;339711;29;1056;-72
2022/05/15 00:29:41;;;;;;;7.05;2.60;;;;;;;15.57;59.29;99771.78;339868;29;1072;-72
2022/05/15 00:29:53;;;;;;;6.40;2.53;;;;;;;15.56;60.09;99778.78;339580;29;1178;-72
2022/05/15 00:30:06;;;;;;;5.60;2.60;;;;;;;15.54;60.01;99772.78;339774;29;1280;-72
2022/05/15 00:30:20;;;;;;;4.15;2.60;;;;;;;15.54;60.18;99772.78;339650;29;1055;-72
2022/05/15 00:30:35;;;;;;;3.50;2.42;;;;;;;15.55;59.76;99768.38;339685;29;1184;-72
2022/05/15 00:30:48;;;;;;;3.13;2.33;;;;;;;15.56;59.72;99776.16;339866;29;875;-72
2022/05/15 00:31:00;;;;;;;4.05;2.50;;;;;;;15.60;59.54;99770.78;339840;29;1049;-72
2022/05/15 00:31:12;;;;;;;4.25;2.47;;;;;;;15.57;59.72;99777.88;339832;29;1120;-72
2022/05/15 00:31:25;;;;;;;4.07;2.30;;;;;;;15.58;59.91;99771.69;339596;29;1028;-72
2022/05/15 00:31:38;;;;;;;3.30;2.20;;;;;;;15.61;59.79;99777.72;339813;29;1072;-72
2022/05/15 00:31:50;;;;;;;3.33;2.40;;;;;;;15.62;59.58;99768.94;339694;29;1157;-72
2022/05/15 00:32:02;;;;;;;4.20;2.60;;;;;;;15.63;59.62;99775.84;339482;29;1162;-72
2022/05/15 00:32:14;;;;;;;4.32;2.53;;;;;;;15.62;59.44;99771.56;339641;29;1224;-72
2022/05/15 00:32:26;;;;;;;4.45;2.45;;;;;;;15.58;58.87;99774.31;339713;29;1096;-72
2022/05/15 00:32:38;;;;;;;4.03;2.40;;;;;;;15.59;58.90;99769.91;339612;29;1063;-72
2022/05/15 00:32:50;;;;;;;4.93;2.60;;;;;;;15.58;58.41;99773.47;339681;29;1120;-72
2022/05/15 00:33:04;;;;;;;5.30;2.47;;;;;;;15.57;58.58;99775.25;339749;29;1020;-72
2022/05/15 00:33:16;;;;;;;5.60;2.53;;;;;;;15.58;58.65;99776.94;339810;29;1120;-72
2022/05/15 00:33:28;;;;;;;6.20;2.60;;;;;;;15.60;58.77;99776.03;339805;29;1116;-73
2022/05/15 00:33:42;;;;;;;6.32;2.67;;;;;;;15.60;58.86;99770.78;340076;29;1357;-72
2022/05/15 00:33:54;;;;;;;5.38;2.55;;;;;;;15.60;58.85;99776.03;340035;29;1096;-72
2022/05/15 00:34:06;;;;;;;4.72;2.40;;;;;;;15.59;59.14;99772.53;339793;29;1083;-72
2022/05/15 00:34:18;;;;;;;5.25;2.40;;;;;;;15.58;59.02;99773.47;339928;29;1202;-72
2022/05/15 00:34:30;;;;;;;5.43;2.70;;;;;;;15.57;59.43;99772.63;339992;29;1094;-72
2022/05/15 00:34:42;;;;;;;4.90;2.53;;;;;;;15.57;59.31;99772.63;339836;29;1220;-72
2022/05/15 00:34:54;;;;;;;4.28;2.40;;;;;;;15.58;59.18;99774.31;339967;29;1228;-72
2022/05/15 00:35:07;;;;;;;4.25;2.40;;;;;;;15.60;59.28;99774.25;339936;29;1228;-72
2022/05/15 00:35:19;;;;;;;5.18;2.53;;;;;;;15.60;59.17;99771.63;339842;29;1030;-72
2022/05/15 00:35:33;;;;;;;5.80;2.50;;;;;;;15.62;59.13;99780.25;340120;29;1220;-73
2022/05/15 00:35:48;;;;;;;5.35;2.40;;;;;;;15.63;59.19;99766.22;339849;29;1373;-72
2022/05/15 00:36:00;;;;;;;3.33;2.15;;;;;;;15.65;58.86;99768.75;339909;29;1131;-72
2022/05/15 00:36:12;;;;;;;3.45;2.45;;;;;;;15.62;58.44;99768.94;339754;29;1095;-72
2022/05/15 00:36:25;;;;;;;3.70;2.67;;;;;;;15.58;58.83;99771.69;340063;29;1055;-72
2022/05/15 00:36:38;;;;;;;4.32;2.70;;;;;;;15.52;58.36;99769.41;339988;29;1080;-72
2022/05/15 00:36:50;;;;;;;3.80;2.60;;;;;;;15.50;58.24;99765.16;339899;29;1095;-72
2022/05/15 00:37:03;;;;;;;2.92;2.40;;;;;;;15.47;58.02;99768.75;339911;29;1168;-72
2022/05/15 00:37:15;;;;;;;4.00;2.50;;;;;;;15.49;58.12;99774.81;339838;29;1348;-72
2022/05/15 00:37:27;;;;;;;4.50;2.60;;;;;;;15.51;58.33;99765.09;339856;29;1084;-72
2022/05/15 00:37:39;;;;;;;4.57;2.50;;;;;;;15.53;58.43;99771.09;339924;29;1046;-72
2022/05/15 00:37:51;;;;;;;3.78;2.25;;;;;;;15.55;58.36;99769.25;339866;29;1167;-72
2022/05/15 00:38:06;;;;;;;3.78;2.17;;;;;;;15.58;58.50;99769.06;339871;29;1116;-72
2022/05/15 00:38:18;;;;;;;3.38;2.20;;;;;;;15.62;58.49;99768.94;339825;29;1088;-72
2022/05/15 00:38:30;;;;;;;3.58;2.53;;;;;;;15.59;59.14;99769.91;339773;29;1148;-72
2022/05/15 00:38:43;;;;;;;4.18;2.85;;;;;;;15.58;59.16;99774.31;339772;29;1253;-72
2022/05/15 00:38:58;;;;;;;4.10;2.80;;;;;;;15.58;58.70;99771.69;339834;29;1108;-72
2022/05/15 00:39:10;;;;;;;4.82;2.60;;;;;;;15.62;59.35;99771.56;339823;29;1189;-73
2022/05/15 00:39:24;;;;;;;5.43;2.65;;;;;;;15.62;59.53;99772.41;339671;29;1058;-72
2022/05/15 00:39:36;;;;;;;3.90;2.40;;;;;;;15.64;59.04;99772.31;339812;29;1174;-72
2022/05/15 00:39:48;;;;;;;3.70;2.45;;;;;;;15.65;58.84;99774.84;339809;29;1160;-72
2022/05/15 00:40:00;;;;;;;4.40;2.50;;;;;;;15.64;58.78;99767.91;339840;29;1224;-72
2022/05/15 00:40:15;;;;;;;5.60;2.72;;;;;;;15.65;59.04;99769.59;339726;29;1088;-72
2022/05/15 00:40:28;;;;;;;6.80;2.60;;;;;;;15.68;58.63;99773.84;339575;29;1277;-72
2022/05/15 00:40:43;;;;;;;6.80;2.40;;;;;;;15.69;58.60;99770.28;339864;29;1019;-72
2022/05/15 00:40:56;;;;;;;3.88;2.17;;;;;;;15.70;58.87;99772.84;338575;29;1014;-72
2022/05/15 00:41:08;;;;;;;4.20;2.20;;;;;;;15.72;58.90;99770.16;338415;29;1286;-72
2022/05/15 00:41:20;;;;;;;4.45;2.45;;;;;;;15.69;58.97;99771.13;338397;29;1051;-72
2022/05/15 00:41:37;;;;;;;5.53;2.47;;;;;;;15.69;58.50;99768.50;338345;29;1052;-72
2022/05/15 00:41:49;;;;;;;5.40;2.60;;;;;;;15.71;58.27;99763.19;339362;29;1417;-72
2022/05/15 00:42:07;;;;;;;4.88;2.55;;;;;;;15.71;58.17;99768.44;339792;29;1987;-72
2022/05/15 00:42:19;;;;;;;6.65;2.67;;;;;;;15.73;58.21;99766.63;338530;29;1096;-72
2022/05/15 00:42:31;;;;;;;5.22;2.65;;;;;;;15.73;58.60;99761.38;338260;29;1190;-72
2022/05/15 00:42:43;;;;;;;4.03;2.63;;;;;;;15.71;58.82;99768.44;338512;29;1244;-72
2022/05/15 00:42:56;;;;;;;4.63;2.78;;;;;;;15.71;58.80;99765.81;338613;29;1019;-72
2022/05/15 00:43:13;;;;;;;4.65;2.47;;;;;;;15.73;58.82;99764.00;339758;29;1023;-72
2022/05/15 00:43:37;;;;;;;4.35;2.25;;;;;;;15.73;58.64;99761.38;339749;29;1235;-72
2022/05/15 00:43:52;;;;;;;4.45;2.47;;;;;;;15.74;58.41;99763.09;338472;29;1067;-72
2022/05/15 00:44:06;;;;;;;4.85;2.50;;;;;;;15.73;58.64;99764.84;338474;29;1035;-72
2022/05/15 00:44:18;;;;;;;4.30;2.40;;;;;;;15.72;58.28;99760.53;338503;29;1112;-72
2022/05/15 00:44:31;;;;;;;3.30;2.30;;;;;;;15.71;58.36;99758.78;339494;29;1360;-72
2022/05/15 00:44:43;;;;;;;4.57;2.28;;;;;;;15.71;58.26;99763.19;339774;29;1030;-72
2022/05/15 00:44:55;;;;;;;4.75;2.45;;;;;;;15.70;57.95;99753.66;339732;29;1148;-72
2022/05/15 00:45:08;;;;;;;4.30;2.60;;;;;;;15.68;58.27;99758.13;339745;29;1045;-72
2022/05/15 00:45:22;;;;;;;4.38;2.50;;;;;;;15.69;58.77;99765.06;339796;29;1201;-72
2022/05/15 00:45:34;;;;;;;4.35;2.33;;;;;;;15.70;58.16;99761.53;339633;29;1121;-72
2022/05/15 00:45:47;;;;;;;3.95;2.40;;;;;;;15.70;58.18;99766.75;339931;29;1337;-72
2022/05/15 00:45:59;;;;;;;3.78;2.30;;;;;;;15.69;58.58;99765.06;339739;29;1104;-72
2022/05/15 00:46:21;;;;;;;4.07;2.22;;;;;;;15.64;58.39;99761.84;339775;29;1039;-72
2022/05/15 00:46:40;;;;;;;3.95;2.10;;;;;;;15.64;58.44;99756.59;340455;29;1324;-72
2022/05/15 00:46:52;;;;;;;4.60;2.55;;;;;;;15.64;58.45;99761.84;340852;29;1066;-72
2022/05/15 00:47:04;;;;;;;4.13;2.55;;;;;;;15.66;58.41;99760.00;340885;29;1064;-72
2022/05/15 00:47:16;;;;;;;5.18;2.30;;;;;;;15.64;58.51;99753.97;340773;29;1064;-72
2022/05/15 00:47:29;;;;;;;5.38;2.30;;;;;;;15.61;58.54;99751.50;340975;29;1231;-72
2022/05/15 00:47:42;;;;;;;5.45;2.40;;;;;;;15.61;58.57;99746.25;341049;29;1080;-72
2022/05/15 00:47:54;;;;;;;3.40;2.40;;;;;;;15.62;58.53;99750.59;341336;28;1166;-72
2022/05/15 00:48:06;;;;;;;4.70;2.40;;;;;;;15.64;58.41;99761.84;341283;28;1023;-72
2022/05/15 00:48:18;;;;;;;5.18;2.53;;;;;;;15.63;58.61;99760.97;341198;28;1245;-72
2022/05/15 00:48:30;;;;;;;5.45;2.63;;;;;;;15.62;58.46;99758.44;341123;29;1059;-72
2022/05/15 00:48:43;;;;;;;4.75;2.58;;;;;;;15.62;58.41;99753.22;341151;28;1085;-72
2022/05/15 00:48:58;;;;;;;5.53;2.50;;;;;;;15.60;58.85;99755.06;341275;28;1032;-72
2022/05/15 00:49:12;;;;;;;5.45;2.55;;;;;;;15.60;58.79;99755.06;341231;28;1078;-72
2022/05/15 00:49:24;;;;;;;4.10;2.50;;;;;;;15.60;58.94;99757.69;341127;28;1103;-72
2022/05/15 00:49:37;;;;;;;4.20;2.40;;;;;;;15.59;58.97;99754.19;341205;28;1071;-72
2022/05/15 00:49:53;;;;;;;4.60;2.50;;;;;;;15.58;59.21;99758.59;341295;28;1252;-72
2022/05/15 00:50:10;;;;;;;4.40;2.47;;;;;;;15.60;58.88;99755.06;341237;28;1073;-72
2022/05/15 00:50:29;;;;;;;4.75;2.47;;;;;;;15.61;58.67;99762.81;341278;28;1063;-72
2022/05/15 00:50:41;;;;;;;3.50;2.50;;;;;;;15.62;59.10;99753.22;341122;28;1086;-72
2022/05/15 00:50:54;;;;;;;3.05;2.50;;;;;;;15.60;58.73;99755.06;341343;28;1265;-72
2022/05/15 00:51:16;;;;;;;2.97;2.35;;;;;;;15.59;58.48;99759.44;341220;29;1014;-72
2022/05/15 00:51:35;;;;;;;4.50;2.38;;;;;;;15.58;58.74;99761.22;340985;29;1016;-72
2022/05/15 00:51:53;;;;;;;4.55;2.50;;;;;;;15.60;58.63;99755.06;340943;29;1172;-72
2022/05/15 00:52:10;;;;;;;6.55;2.70;;;;;;;15.58;58.87;99758.59;340990;29;1084;-72
2022/05/15 00:52:28;;;;;;;6.95;2.50;;;;;;;15.63;58.68;99760.13;340805;29;1421;-72
2022/05/15 00:52:45;;;;;;;4.07;2.30;;;;;;;15.64;58.42;99756.59;340984;29;1251;-72
2022/05/15 00:53:04;;;;;;;4.07;2.50;;;;;;;15.65;58.35;99758.28;340900;29;1050;-72
2022/05/15 00:53:17;;;;;;;4.32;2.22;;;;;;;15.64;58.51;99757.44;341012;29;1064;-72
2022/05/15 00:53:30;;;;;;;5.32;2.22;;;;;;;15.67;58.42;99761.66;340648;29;1231;-72
2022/05/15 00:53:43;;;;;;;5.82;2.40;;;;;;;15.68;58.31;99758.13;340935;29;1020;-72
2022/05/15 00:54:06;;;;;;;4.50;2.35;;;;;;;15.69;58.34;99757.19;341189;28;1312;-72
2022/05/15 00:54:17;;;;;;;4.65;2.53;;;;;;;15.70;58.11;99759.75;341361;28;1191;-72
2022/05/15 00:54:35;;;;;;;4.95;2.65;;;;;;;15.70;58.03;99756.28;341004;28;1031;-72
2022/05/15 00:54:52;;;;;;;5.25;2.50;;;;;;;15.71;57.88;99757.97;341106;28;1269;-72
2022/05/15 00:55:15;;;;;;;4.13;2.38;;;;;;;15.69;57.92;99759.81;341230;28;1288;-72
2022/05/15 00:55:35;;;;;;;4.80;2.40;;;;;;;15.67;57.49;99756.44;341247;28;1079;-72
2022/05/15 00:55:51;;;;;;;4.50;2.53;;;;;;;15.68;57.68;99763.38;341102;28;848;-72
2022/05/15 00:56:03;;;;;;;4.38;2.50;;;;;;;15.69;57.72;99759.81;341259;28;1054;-72
2022/05/15 00:56:19;;;;;;;4.05;2.47;;;;;;;15.69;57.73;99760.66;341099;28;1084;-72
2022/05/15 00:56:33;;;;;;;7.85;2.50;;;;;;;15.70;57.90;99762.34;341049;28;999;-72
2022/05/15 00:56:53;;;;;;;8.48;2.70;;;;;;;15.72;57.75;99764.91;341137;28;1250;-72
2022/05/15 00:57:30;;;;;;;4.80;2.60;;;;;;;15.67;57.47;99764.28;341206;28;1023;-72
2022/05/15 00:57:50;;;;;;;2.90;2.28;;;;;;;15.66;57.74;99765.22;341112;28;1035;-72
2022/05/15 00:58:28;;;;;;;3.45;2.33;;;;;;;15.69;58.00;99765.06;341209;28;1238;-72
2022/05/15 00:58:57;;;;;;;4.65;2.50;;;;;;;15.68;57.61;99758.13;340574;28;1032;-72
2022/05/15 00:59:15;;;;;;;4.80;2.35;;;;;;;15.67;58.49;99762.50;342223;28;1072;-72
2022/05/15 00:59:32;;;;;;;5.00;2.60;;;;;;;15.69;58.37;99759.81;342039;28;1031;-72
2022/05/15 00:59:52;;;;;;;5.18;2.55;;;;;;;15.67;58.28;99757.25;342253;28;1076;-72
2022/05/15 01:00:14;;;;;;;3.50;2.50;;;;;;;15.67;58.28;99756.44;342288;28;1072;-72
2022/05/15 01:00:31;;;;;;;4.30;2.67;;;;;;;15.68;58.26;99752.91;342078;28;1170;-72
2022/05/15 01:00:43;;;;;;;4.38;2.70;;;;;;;15.69;58.45;99759.81;342128;28;1132;-72
2022/05/15 01:00:56;;;;;;;4.00;2.88;;;;;;;15.70;58.25;99761.53;341944;28;1173;-72
2022/05/15 01:01:08;;;;;;;4.05;2.70;;;;;;;15.71;58.20;99753.56;341852;28;1091;-72
2022/05/15 01:01:20;;;;;;;6.10;2.55;;;;;;;15.68;58.20;99752.91;341039;28;1154;-72
2022/05/15 01:01:32;;;;;;;5.20;2.33;;;;;;;15.65;58.35;99755.66;341258;28;1247;-72
2022/05/15 01:01:45;;;;;;;5.20;2.40;;;;;;;15.63;58.45;99760.13;341174;28;1038;-72
2022/05/15 01:01:57;;;;;;;3.97;2.50;;;;;;;15.63;58.35;99757.50;341166;28;1197;-72
2022/05/15 01:02:10;;;;;;;4.03;2.50;;;;;;;15.62;58.44;99750.59;341271;28;1214;-72
2022/05/15 01:02:25;;;;;;;4.70;2.60;;;;;;;15.63;58.32;99755.72;341326;28;1083;-72
2022/05/15 01:02:42;;;;;;;5.68;2.60;;;;;;;15.63;58.40;99760.97;340915;29;1056;-72
2022/05/15 01:03:04;;;;;;;4.95;2.70;;;;;;;15.59;58.99;99754.19;340629;29;1133;-72
2022/05/15 01:03:18;;;;;;;4.22;2.70;;;;;;;15.57;58.83;99751.69;341365;29;852;-72
2022/05/15 01:03:31;;;;;;;3.90;2.50;;;;;;;15.56;58.77;99749.97;340657;29;1963;-73
2022/05/15 01:03:45;;;;;;;3.75;2.50;;;;;;;15.57;59.25;99753.44;340959;29;1091;-72
2022/05/15 01:03:57;;;;;;;4.32;2.50;;;;;;;15.56;59.50;99755.22;340974;29;1073;-72
2022/05/15 01:04:09;;;;;;;4.93;2.50;;;;;;;15.57;58.93;99743.81;341034;29;1087;-72
2022/05/15 01:04:21;;;;;;;6.60;2.53;;;;;;;15.58;58.89;99753.34;340946;29;1059;-72
2022/05/15 01:04:33;;;;;;;4.78;2.33;;;;;;;15.57;58.89;99746.44;340913;29;1624;-72
2022/05/15 01:04:46;;;;;;;4.10;2.22;;;;;;;15.54;58.74;99749.19;340856;29;1196;-72
2022/05/15 01:04:58;;;;;;;5.05;2.47;;;;;;;15.57;58.82;99751.69;340818;29;1075;-72
2022/05/15 01:05:12;;;;;;;5.20;2.63;;;;;;;15.57;59.18;99751.69;340871;29;1024;-72
2022/05/15 01:05:27;;;;;;;5.88;2.60;;;;;;;15.57;58.87;99751.69;340910;29;898;-72
2022/05/15 01:05:45;;;;;;;5.22;2.58;;;;;;;15.57;58.84;99754.31;340631;29;1269;-72
2022/05/15 01:06:02;;;;;;;5.57;2.53;;;;;;;15.53;58.66;99750.16;340840;29;1245;-72
2022/05/15 01:06:14;;;;;;;5.15;2.63;;;;;;;15.54;58.35;99741.34;340956;29;1083;-72
2022/05/15 01:06:29;;;;;;;4.47;2.72;;;;;;;15.50;58.61;99738.97;341019;29;1068;-72